Terminal Aerodrome Forecast
Issued by NWS Boston, MA

Home | Current Version | Previous Version | Text Only | Print | Product List | Glossary On
Versions: 1 2 3 4 5 6 7 8 9 10 11 12 13 14 15 16 17 18
000
FTUS41 KBOX 281121
TAFORH
TAF
KORH 281121Z 2812/2912 06008KT 6SM BR BKN005
     FM281400 06008KT P6SM BKN008
     FM281500 06008KT P6SM BKN015
     FM282200 05009KT P6SM -DZ OVC015=

USA.gov is the U.S. government's official web portal to all federal, state and local government web resources and services.